sensor_id;sensor_type;location;lat;lon;timestamp;pressure;altitude;pressure_sealevel;temperature;humidity
46129;BME280;31860;45.186;5.790;2022-11-22T00:02:09;97671.38;;;10.98;100.00
46129;BME280;31860;45.186;5.790;2022-11-22T00:04:34;97680.06;;;10.98;100.00
46129;BME280;31860;45.186;5.790;2022-11-22T00:06:59;97685.34;;;10.97;100.00
46129;BME280;31860;45.186;5.790;2022-11-22T00:09:25;97687.94;;;10.97;100.00
46129;BME280;31860;45.186;5.790;2022-11-22T00:11:50;97687.13;;;10.95;100.00
46129;BME280;31860;45.186;5.790;2022-11-22T00:14:15;97693.25;;;10.94;100.00
46129;BME280;31860;45.186;5.790;2022-11-22T00:16:41;97694.97;;;10.95;100.00
46129;BME280;31860;45.186;5.790;2022-11-22T00:19:08;97691.44;;;10.96;100.00
46129;BME280;31860;45.186;5.790;2022-11-22T00:21:33;97691.50;;;10.94;100.00
46129;BME280;31860;45.186;5.790;2022-11-22T00:23:58;97700.25;;;10.93;100.00
46129;BME280;31860;45.186;5.790;2022-11-22T00:26:24;97692.41;;;10.92;100.00
46129;BME280;31860;45.186;5.790;2022-11-22T00:28:49;97690.75;;;10.89;100.00
46129;BME280;31860;45.186;5.790;2022-11-22T00:31:15;97691.63;;;10.88;100.00
46129;BME280;31860;45.186;5.790;2022-11-22T00:33:40;97697.81;;;10.86;100.00
46129;BME280;31860;45.186;5.790;2022-11-22T00:36:05;97691.72;;;10.85;100.00
46129;BME280;31860;45.186;5.790;2022-11-22T00:38:31;97691.72;;;10.85;100.00
46129;BME280;31860;45.186;5.790;2022-11-22T00:40:56;97691.72;;;10.85;100.00
46129;BME280;31860;45.186;5.790;2022-11-22T00:43:21;97697.06;;;10.81;100.00
46129;BME280;31860;45.186;5.790;2022-11-22T00:45:47;97701.34;;;10.83;100.00
46129;BME280;31860;45.186;5.790;2022-11-22T00:48:12;97704.00;;;10.82;100.00
46129;BME280;31860;45.186;5.790;2022-11-22T00:50:38;97703.16;;;10.81;100.00
46129;BME280;31860;45.186;5.790;2022-11-22T00:53:03;97697.94;;;10.81;100.00
46129;BME280;31860;45.186;5.790;2022-11-22T00:55:28;97696.22;;;10.80;100.00
46129;BME280;31860;45.186;5.790;2022-11-22T00:57:54;97707.50;;;10.81;100.00
46129;BME280;31860;45.186;5.790;2022-11-22T01:00:19;97710.09;;;10.82;100.00
46129;BME280;31860;45.186;5.790;2022-11-22T01:02:45;97718.78;;;10.83;100.00
46129;BME280;31860;45.186;5.790;2022-11-22T01:05:10;97719.72;;;10.80;100.00
46129;BME280;31860;45.186;5.790;2022-11-22T01:07:35;97714.50;;;10.79;100.00
46129;BME280;31860;45.186;5.790;2022-11-22T01:10:01;97715.38;;;10.79;100.00
46129;BME280;31860;45.186;5.790;2022-11-22T01:12:26;97714.50;;;10.79;100.00
46129;BME280;31860;45.186;5.790;2022-11-22T01:14:52;97713.69;;;10.78;100.00
46129;BME280;31860;45.186;5.790;2022-11-22T01:17:17;97722.34;;;10.79;100.00
46129;BME280;31860;45.186;5.790;2022-11-22T01:19:42;97717.13;;;10.79;100.00
46129;BME280;31860;45.186;5.790;2022-11-22T01:22:08;97711.06;;;10.78;100.00
46129;BME280;31860;45.186;5.790;2022-11-22T01:24:33;97718.91;;;10.78;100.00
46129;BME280;31860;45.186;5.790;2022-11-22T01:26:58;97722.34;;;10.79;100.00
46129;BME280;31860;45.186;5.790;2022-11-22T01:29:24;97715.47;;;10.76;100.00
46129;BME280;31860;45.186;5.790;2022-11-22T01:31:49;97711.13;;;10.75;100.00
46129;BME280;31860;45.186;5.790;2022-11-22T01:34:14;97717.16;;;10.77;100.00
46129;BME280;31860;45.186;5.790;2022-11-22T01:36:40;97721.53;;;10.78;100.00
46129;BME280;31860;45.186;5.790;2022-11-22T01:39:05;97724.03;;;10.81;100.00
46129;BME280;31860;45.186;5.790;2022-11-22T01:41:31;97718.84;;;10.80;100.00
46129;BME280;31860;45.186;5.790;2022-11-22T01:43:56;97726.69;;;10.80;100.00
46129;BME280;31860;45.186;5.790;2022-11-22T01:46:33;97721.44;;;10.81;100.00
46129;BME280;31860;45.186;5.790;2022-11-22T01:49:33;97711.81;;;10.83;100.00
46129;BME280;31860;45.186;5.790;2022-11-22T01:52:05;97711.81;;;10.83;100.00
46129;BME280;31860;45.186;5.790;2022-11-22T01:54:33;97718.78;;;10.83;100.00
46129;BME280;31860;45.186;5.790;2022-11-22T01:57:04;97719.69;;;10.82;100.00
46129;BME280;31860;45.186;5.790;2022-11-22T01:59:32;97721.44;;;10.81;100.00
46129;BME280;31860;45.186;5.790;2022-11-22T02:01:58;97732.78;;;10.80;100.00
46129;BME280;31860;45.186;5.790;2022-11-22T02:04:25;97728.44;;;10.79;100.00
46129;BME280;31860;45.186;5.790;2022-11-22T02:07:12;97724.13;;;10.78;100.00
46129;BME280;31860;45.186;5.790;2022-11-22T02:09:39;97718.09;;;10.76;100.00
46129;BME280;31860;45.186;5.790;2022-11-22T02:12:07;97725.88;;;10.78;100.00
46129;BME280;31860;45.186;5.790;2022-11-22T02:14:35;97725.00;;;10.77;100.00
46129;BME280;31860;45.186;5.790;2022-11-22T02:17:01;97731.09;;;10.78;100.00
46129;BME280;31860;45.186;5.790;2022-11-22T02:19:42;97734.59;;;10.77;100.00
46129;BME280;31860;45.186;5.790;2022-11-22T02:22:43;97732.06;;;10.74;100.00
46129;BME280;31860;45.186;5.790;2022-11-22T02:25:31;97728.59;;;10.73;100.00
46129;BME280;31860;45.186;5.790;2022-11-22T02:27:59;97735.59;;;10.71;100.00
46129;BME280;31860;45.186;5.790;2022-11-22T02:30:24;97736.47;;;10.72;100.00
46129;BME280;31860;45.186;5.790;2022-11-22T02:32:49;97735.59;;;10.73;100.00
46129;BME280;31860;45.186;5.790;2022-11-22T02:35:24;97734.75;;;10.71;100.00
46129;BME280;31860;45.186;5.790;2022-11-22T02:38:02;97727.75;;;10.71;100.00
46129;BME280;31860;45.186;5.790;2022-11-22T02:40:31;97727.81;;;10.70;100.00
46129;BME280;31860;45.186;5.790;2022-11-22T02:43:04;97720.88;;;10.69;100.00
46129;BME280;31860;45.186;5.790;2022-11-22T02:45:30;97726.06;;;10.70;100.00
46129;BME280;31860;45.186;5.790;2022-11-22T02:48:13;97719.09;;;10.69;100.00
46129;BME280;31860;45.186;5.790;2022-11-22T02:50:39;97721.72;;;10.69;100.00
46129;BME280;31860;45.186;5.790;2022-11-22T02:53:05;97717.41;;;10.68;100.00
46129;BME280;31860;45.186;5.790;2022-11-22T02:55:30;97724.38;;;10.68;100.00
46129;BME280;31860;45.186;5.790;2022-11-22T02:57:56;97718.31;;;10.66;100.00
46129;BME280;31860;45.186;5.790;2022-11-22T03:00:22;97723.56;;;10.66;100.00
46129;BME280;31860;45.186;5.790;2022-11-22T03:02:48;97720.06;;;10.67;100.00
46129;BME280;31860;45.186;5.790;2022-11-22T03:05:14;97714.78;;;10.68;100.00
46129;BME280;31860;45.186;5.790;2022-11-22T03:07:39;97715.69;;;10.67;100.00
46129;BME280;31860;45.186;5.790;2022-11-22T03:10:05;97725.28;;;10.67;100.00
46129;BME280;31860;45.186;5.790;2022-11-22T03:12:30;97725.25;;;10.68;100.00
46129;BME280;31860;45.186;5.790;2022-11-22T03:14:56;97727.03;;;10.66;100.00
46129;BME280;31860;45.186;5.790;2022-11-22T03:17:21;97726.16;;;10.67;100.00
46129;BME280;31860;45.186;5.790;2022-11-22T03:19:47;97720.94;;;10.67;100.00
46129;BME280;31860;45.186;5.790;2022-11-22T03:22:12;97716.59;;;10.66;100.00
46129;BME280;31860;45.186;5.790;2022-11-22T03:24:38;97706.13;;;10.66;100.00
46129;BME280;31860;45.186;5.790;2022-11-22T03:27:03;97698.34;;;10.65;100.00
46129;BME280;31860;45.186;5.790;2022-11-22T03:29:28;97702.72;;;10.64;100.00
46129;BME280;31860;45.186;5.790;2022-11-22T03:31:54;97700.91;;;10.66;100.00
46129;BME280;31860;45.186;5.790;2022-11-22T03:34:19;97697.44;;;10.66;100.00
46129;BME280;31860;45.186;5.790;2022-11-22T03:36:44;97701.78;;;10.67;100.00
46129;BME280;31860;45.186;5.790;2022-11-22T03:39:10;97699.22;;;10.65;100.00
46129;BME280;31860;45.186;5.790;2022-11-22T03:41:35;97704.44;;;10.65;100.00
46129;BME280;31860;45.186;5.790;2022-11-22T03:44:01;97692.25;;;10.64;100.00
46129;BME280;31860;45.186;5.790;2022-11-22T03:46:26;97696.66;;;10.62;100.00
46129;BME280;31860;45.186;5.790;2022-11-22T03:48:51;97701.84;;;10.64;100.00
46129;BME280;31860;45.186;5.790;2022-11-22T03:51:17;97716.69;;;10.62;100.00
46129;BME280;31860;45.186;5.790;2022-11-22T03:53:42;97704.50;;;10.62;100.00
46129;BME280;31860;45.186;5.790;2022-11-22T03:56:08;97705.41;;;10.61;100.00
46129;BME280;31860;45.186;5.790;2022-11-22T03:58:34;97714.94;;;10.62;100.00
46129;BME280;31860;45.186;5.790;2022-11-22T04:01:00;97721.06;;;10.61;100.00
46129;BME280;31860;45.186;5.790;2022-11-22T04:03:25;97712.38;;;10.61;100.00
46129;BME280;31860;45.186;5.790;2022-11-22T04:05:51;97718.47;;;10.61;100.00
46129;BME280;31860;45.186;5.790;2022-11-22T04:08:16;97729.72;;;10.62;100.00
46129;BME280;31860;45.186;5.790;2022-11-22T04:10:42;97729.72;;;10.62;100.00
46129;BME280;31860;45.186;5.790;2022-11-22T04:13:07;97725.38;;;10.62;100.00
46129;BME280;31860;45.186;5.790;2022-11-22T04:15:33;97716.66;;;10.63;100.00
46129;BME280;31860;45.186;5.790;2022-11-22T04:17:58;97712.28;;;10.64;100.00
46129;BME280;31860;45.186;5.790;2022-11-22T04:20:26;97703.56;;;10.65;100.00
46129;BME280;31860;45.186;5.790;2022-11-22T04:23:16;97710.53;;;10.64;100.00
46129;BME280;31860;45.186;5.790;2022-11-22T04:25:46;97714.91;;;10.64;100.00
46129;BME280;31860;45.186;5.790;2022-11-22T04:28:13;97714.91;;;10.64;100.00
46129;BME280;31860;45.186;5.790;2022-11-22T04:30:39;97720.16;;;10.62;100.00
46129;BME280;31860;45.186;5.790;2022-11-22T04:33:24;97732.38;;;10.60;100.00
46129;BME280;31860;45.186;5.790;2022-11-22T04:35:50;97733.25;;;10.61;100.00
46129;BME280;31860;45.186;5.790;2022-11-22T04:38:16;97734.13;;;10.61;100.00
46129;BME280;31860;45.186;5.790;2022-11-22T04:40:42;97733.28;;;10.59;100.00
46129;BME280;31860;45.186;5.790;2022-11-22T04:43:13;97734.16;;;10.58;100.00
46129;BME280;31860;45.186;5.790;2022-11-22T04:45:58;97745.53;;;10.57;100.00
46129;BME280;31860;45.186;5.790;2022-11-22T04:48:24;97732.50;;;10.56;100.00
46129;BME280;31860;45.186;5.790;2022-11-22T04:50:49;97744.69;;;10.55;100.00
46129;BME280;31860;45.186;5.790;2022-11-22T04:53:33;97743.84;;;10.55;100.00
46129;BME280;31860;45.186;5.790;2022-11-22T04:55:59;97752.53;;;10.55;100.00
46129;BME280;31860;45.186;5.790;2022-11-22T04:58:24;97757.78;;;10.54;100.00
46129;BME280;31860;45.186;5.790;2022-11-22T05:00:50;97750.81;;;10.54;100.00
46129;BME280;31860;45.186;5.790;2022-11-22T05:03:16;97754.28;;;10.55;100.00
46129;BME280;31860;45.186;5.790;2022-11-22T05:05:43;97770.84;;;10.54;100.00
46129;BME280;31860;45.186;5.790;2022-11-22T05:08:09;97760.44;;;10.52;100.00
46129;BME280;31860;45.186;5.790;2022-11-22T05:10:36;97773.47;;;10.54;100.00
46129;BME280;31860;45.186;5.790;2022-11-22T05:15:50;97756.06;;;10.52;100.00
46129;BME280;31860;45.186;5.790;2022-11-22T05:18:16;97756.09;;;10.51;100.00
46129;BME280;31860;45.186;5.790;2022-11-22T05:20:42;97769.19;;;10.49;100.00
46129;BME280;31860;45.186;5.790;2022-11-22T05:23:07;97783.94;;;10.52;100.00
46129;BME280;31860;45.186;5.790;2022-11-22T05:25:51;97788.34;;;10.50;100.00
46129;BME280;31860;45.186;5.790;2022-11-22T05:28:16;97788.34;;;10.48;100.00
46129;BME280;31860;45.186;5.790;2022-11-22T05:30:41;97791.84;;;10.47;100.00
46129;BME280;31860;45.186;5.790;2022-11-22T05:33:07;97787.56;;;10.45;100.00
46129;BME280;31860;45.186;5.790;2022-11-22T05:35:32;97787.59;;;10.43;100.00
46129;BME280;31860;45.186;5.790;2022-11-22T05:37:58;97782.38;;;10.43;100.00
46129;BME280;31860;45.186;5.790;2022-11-22T05:40:24;97785.91;;;10.42;100.00
46129;BME280;31860;45.186;5.790;2022-11-22T05:42:50;97787.63;;;10.42;100.00
46129;BME280;31860;45.186;5.790;2022-11-22T05:45:16;97790.22;;;10.43;100.00
46129;BME280;31860;45.186;5.790;2022-11-22T05:47:41;97799.78;;;10.43;100.00
46129;BME280;31860;45.186;5.790;2022-11-22T05:50:07;97804.16;;;10.41;100.00
46129;BME280;31860;45.186;5.790;2022-11-22T05:52:33;97806.88;;;10.38;100.00
46129;BME280;31860;45.186;5.790;2022-11-22T05:54:58;97800.78;;;10.37;100.00
46129;BME280;31860;45.186;5.790;2022-11-22T05:57:24;97804.28;;;10.36;100.00
46129;BME280;31860;45.186;5.790;2022-11-22T05:59:50;97813.84;;;10.36;100.00
46129;BME280;31860;45.186;5.790;2022-11-22T06:02:15;97809.56;;;10.35;100.00
46129;BME280;31860;45.186;5.790;2022-11-22T06:04:41;97812.16;;;10.33;100.00
46129;BME280;31860;45.186;5.790;2022-11-22T06:07:06;97820.91;;;10.32;100.00
46129;BME280;31860;45.186;5.790;2022-11-22T06:09:32;97820.00;;;10.35;100.00
46129;BME280;31860;45.186;5.790;2022-11-22T06:11:57;97823.44;;;10.35;100.00
46129;BME280;31860;45.186;5.790;2022-11-22T06:14:23;97823.44;;;10.35;100.00
46129;BME280;31860;45.186;5.790;2022-11-22T06:16:49;97832.13;;;10.36;100.00
46129;BME280;31860;45.186;5.790;2022-11-22T06:19:15;97834.75;;;10.36;100.00
46129;BME280;31860;45.186;5.790;2022-11-22T06:21:40;97840.78;;;10.38;100.00
46129;BME280;31860;45.186;5.790;2022-11-22T06:24:06;97857.28;;;10.40;100.00
46129;BME280;31860;45.186;5.790;2022-11-22T06:26:31;97864.22;;;10.39;100.00
46129;BME280;31860;45.186;5.790;2022-11-22T06:28:57;97862.50;;;10.40;100.00
46129;BME280;31860;45.186;5.790;2022-11-22T06:31:24;97872.06;;;10.39;100.00
46129;BME280;31860;45.186;5.790;2022-11-22T06:33:52;97859.00;;;10.39;100.00
46129;BME280;31860;45.186;5.790;2022-11-22T06:36:20;97864.28;;;10.38;100.00
46129;BME280;31860;45.186;5.790;2022-11-22T06:38:47;97853.84;;;10.38;100.00
46129;BME280;31860;45.186;5.790;2022-11-22T06:41:17;97859.97;;;10.37;100.00
46129;BME280;31860;45.186;5.790;2022-11-22T06:43:45;97864.31;;;10.36;100.00
46129;BME280;31860;45.186;5.790;2022-11-22T06:46:11;97862.56;;;10.37;100.00
46129;BME280;31860;45.186;5.790;2022-11-22T06:48:38;97866.91;;;10.36;100.00
46129;BME280;31860;45.186;5.790;2022-11-22T06:51:06;97879.09;;;10.36;100.00
46129;BME280;31860;45.186;5.790;2022-11-22T06:53:32;97888.66;;;10.37;100.00
46129;BME280;31860;45.186;5.790;2022-11-22T06:56:09;97883.44;;;10.37;100.00
46129;BME280;31860;45.186;5.790;2022-11-22T06:58:36;97888.66;;;10.37;100.00
46129;BME280;31860;45.186;5.790;2022-11-22T07:01:15;97894.75;;;10.36;100.00
46129;BME280;31860;45.186;5.790;2022-11-22T07:03:41;97885.19;;;10.36;100.00
46129;BME280;31860;45.186;5.790;2022-11-22T07:06:09;97897.38;;;10.36;100.00
46129;BME280;31860;45.186;5.790;2022-11-22T07:08:35;97909.53;;;10.37;100.00
46129;BME280;31860;45.186;5.790;2022-11-22T07:11:05;97906.09;;;10.35;100.00
46129;BME280;31860;45.186;5.790;2022-11-22T07:13:32;97902.63;;;10.34;100.00
46129;BME280;31860;45.186;5.790;2022-11-22T07:15:59;97904.38;;;10.34;100.00
46129;BME280;31860;45.186;5.790;2022-11-22T07:18:25;97907.88;;;10.33;100.00
46129;BME280;31860;45.186;5.790;2022-11-22T07:20:51;97911.38;;;10.32;100.00
46129;BME280;31860;45.186;5.790;2022-11-22T07:23:17;97918.38;;;10.30;100.00
46129;BME280;31860;45.186;5.790;2022-11-22T07:25:46;97921.88;;;10.29;100.00
46129;BME280;31860;45.186;5.790;2022-11-22T07:28:13;97920.09;;;10.31;100.00
46129;BME280;31860;45.186;5.790;2022-11-22T07:30:39;97920.97;;;10.30;100.00
46129;BME280;31860;45.186;5.790;2022-11-22T07:33:05;97923.66;;;10.27;100.00
46129;BME280;31860;45.186;5.790;2022-11-22T07:35:30;97924.53;;;10.27;100.00
46129;BME280;31860;45.186;5.790;2022-11-22T07:37:57;97930.56;;;10.28;100.00
46129;BME280;31860;45.186;5.790;2022-11-22T07:40:22;97933.19;;;10.28;100.00
46129;BME280;31860;45.186;5.790;2022-11-22T07:42:47;97932.34;;;10.27;100.00
46129;BME280;31860;45.186;5.790;2022-11-22T07:45:13;97927.16;;;10.24;100.00
46129;BME280;31860;45.186;5.790;2022-11-22T07:47:38;97920.28;;;10.20;100.00
46129;BME280;31860;45.186;5.790;2022-11-22T07:50:04;97934.28;;;10.18;100.00
46129;BME280;31860;45.186;5.790;2022-11-22T07:52:29;97925.53;;;10.19;100.00
46129;BME280;31860;45.186;5.790;2022-11-22T07:54:55;97932.41;;;10.23;100.00
46129;BME280;31860;45.186;5.790;2022-11-22T07:57:20;97926.31;;;10.24;100.00
46129;BME280;31860;45.186;5.790;2022-11-22T07:59:46;97933.22;;;10.26;100.00
46129;BME280;31860;45.186;5.790;2022-11-22T08:02:11;97939.25;;;10.30;100.00
46129;BME280;31860;45.186;5.790;2022-11-22T08:04:37;97942.69;;;10.32;100.00
46129;BME280;31860;45.186;5.790;2022-11-22T08:07:02;97933.97;;;10.33;100.00
46129;BME280;31860;45.186;5.790;2022-11-22T08:09:28;97935.72;;;10.32;100.00
46129;BME280;31860;45.186;5.790;2022-11-22T08:11:53;97945.25;;;10.35;100.00
46129;BME280;31860;45.186;5.790;2022-11-22T08:14:18;97954.81;;;10.34;100.00
46129;BME280;31860;45.186;5.790;2022-11-22T08:16:44;97961.75;;;10.35;100.00
46129;BME280;31860;45.186;5.790;2022-11-22T08:19:09;97965.22;;;10.36;100.00
46129;BME280;31860;45.186;5.790;2022-11-22T08:21:40;97966.97;;;10.37;100.00
46129;BME280;31860;45.186;5.790;2022-11-22T08:24:05;97981.72;;;10.38;100.00
46129;BME280;31860;45.186;5.790;2022-11-22T08:26:32;97985.19;;;10.38;100.00
46129;BME280;31860;45.186;5.790;2022-11-22T08:28:58;97988.63;;;10.39;100.00
46129;BME280;31860;45.186;5.790;2022-11-22T08:31:23;97987.72;;;10.41;100.00
46129;BME280;31860;45.186;5.790;2022-11-22T08:33:52;97995.53;;;10.43;100.00
46129;BME280;31860;45.186;5.790;2022-11-22T08:36:18;97998.13;;;10.44;100.00
46129;BME280;31860;45.186;5.790;2022-11-22T08:38:43;98006.81;;;10.45;100.00
46129;BME280;31860;45.186;5.790;2022-11-22T08:41:09;98015.50;;;10.45;100.00
46129;BME280;31860;45.186;5.790;2022-11-22T08:43:35;98024.16;;;10.47;100.00
46129;BME280;31860;45.186;5.790;2022-11-22T08:46:01;98029.34;;;10.49;100.00
46129;BME280;31860;45.186;5.790;2022-11-22T08:48:27;98031.94;;;10.50;100.00
46129;BME280;31860;45.186;5.790;2022-11-22T08:50:58;98030.19;;;10.51;100.00
46129;BME280;31860;45.186;5.790;2022-11-22T08:53:24;98024.91;;;10.54;100.00
46129;BME280;31860;45.186;5.790;2022-11-22T08:55:51;98031.84;;;10.55;100.00
46129;BME280;31860;45.186;5.790;2022-11-22T08:58:17;98036.16;;;10.56;100.00
46129;BME280;31860;45.186;5.790;2022-11-22T09:00:43;98038.78;;;10.58;100.00
46129;BME280;31860;45.186;5.790;2022-11-22T09:03:08;98046.53;;;10.61;100.00
46129;BME280;31860;45.186;5.790;2022-11-22T09:05:33;98046.47;;;10.64;100.00
46129;BME280;31860;45.186;5.790;2022-11-22T09:07:59;98046.47;;;10.65;100.00
46129;BME280;31860;45.186;5.790;2022-11-22T09:10:25;98038.53;;;10.70;100.00
46129;BME280;31860;45.186;5.790;2022-11-22T09:12:51;98040.22;;;10.72;100.00
46129;BME280;31860;45.186;5.790;2022-11-22T09:15:16;98043.66;;;10.74;100.00
46129;BME280;31860;45.186;5.790;2022-11-22T09:17:42;98042.84;;;10.72;100.00
46129;BME280;31860;45.186;5.790;2022-11-22T09:20:09;98038.44;;;10.74;100.00
46129;BME280;31860;45.186;5.790;2022-11-22T09:22:35;98034.94;;;10.75;100.00
46129;BME280;31860;45.186;5.790;2022-11-22T09:25:00;98045.34;;;10.77;100.00
46129;BME280;31860;45.186;5.790;2022-11-22T09:27:26;98046.22;;;10.77;100.00
46129;BME280;31860;45.186;5.790;2022-11-22T09:29:51;98043.59;;;10.77;100.00
46129;BME280;31860;45.186;5.790;2022-11-22T09:32:17;98048.78;;;10.80;100.00
46129;BME280;31860;45.186;5.790;2022-11-22T09:34:42;98047.00;;;10.82;100.00
46129;BME280;31860;45.186;5.790;2022-11-22T09:37:07;98066.97;;;10.85;100.00
46129;BME280;31860;45.186;5.790;2022-11-22T09:39:33;98056.47;;;10.88;100.00
46129;BME280;31860;45.186;5.790;2022-11-22T09:45:00;98061.59;;;10.92;100.00
46129;BME280;31860;45.186;5.790;2022-11-22T09:47:39;98059.81;;;10.94;100.00
46129;BME280;31860;45.186;5.790;2022-11-22T09:50:28;98053.69;;;10.95;100.00
46129;BME280;31860;45.186;5.790;2022-11-22T09:53:02;98054.53;;;10.97;100.00
46129;BME280;31860;45.186;5.790;2022-11-22T09:55:41;98065.84;;;10.96;100.00
46129;BME280;31860;45.186;5.790;2022-11-22T09:58:15;98062.38;;;10.96;100.00
46129;BME280;31860;45.186;5.790;2022-11-22T10:00:47;98066.69;;;10.98;100.00
46129;BME280;31860;45.186;5.790;2022-11-22T10:03:24;98060.59;;;10.98;100.00
46129;BME280;31860;45.186;5.790;2022-11-22T10:05:59;98053.63;;;10.98;100.00
46129;BME280;31860;45.186;5.790;2022-11-22T10:08:36;98064.09;;;10.98;100.00
46129;BME280;31860;45.186;5.790;2022-11-22T10:11:49;98063.22;;;10.98;100.00
46129;BME280;31860;45.186;5.790;2022-11-22T10:13:59;98059.72;;;10.99;100.00
46129;BME280;31860;45.186;5.790;2022-11-22T10:21:20;98047.34;;;11.07;100.00
46129;BME280;31860;45.186;5.790;2022-11-22T10:23:46;98041.16;;;11.12;100.00
46129;BME280;31860;45.186;5.790;2022-11-22T10:31:29;98035.78;;;11.18;100.00
46129;BME280;31860;45.186;5.790;2022-11-22T10:34:28;98029.63;;;11.21;100.00
46129;BME280;31860;45.186;5.790;2022-11-22T10:37:04;98032.22;;;11.22;100.00
46129;BME280;31860;45.186;5.790;2022-11-22T10:45:17;98013.00;;;11.25;100.00
46129;BME280;31860;45.186;5.790;2022-11-22T10:53:40;97998.06;;;11.30;99.61
46129;BME280;31860;45.186;5.790;2022-11-22T10:56:18;97984.13;;;11.31;98.54
46129;BME280;31860;45.186;5.790;2022-11-22T11:01:48;98000.59;;;11.34;97.07
46129;BME280;31860;45.186;5.790;2022-11-22T11:04:19;97997.97;;;11.34;95.58
46129;BME280;31860;45.186;5.790;2022-11-22T11:06:49;97994.44;;;11.35;95.98
46129;BME280;31860;45.186;5.790;2022-11-22T11:12:12;97984.72;;;11.42;94.31
46129;BME280;31860;45.186;5.790;2022-11-22T11:14:44;97980.34;;;11.44;93.67
46129;BME280;31860;45.186;5.790;2022-11-22T11:17:16;97978.47;;;11.49;92.59
46129;BME280;31860;45.186;5.790;2022-11-22T11:19:44;97968.78;;;11.53;91.80
46129;BME280;31860;45.186;5.790;2022-11-22T11:22:17;97977.41;;;11.58;91.81
46129;BME280;31860;45.186;5.790;2022-11-22T11:24:46;97980.78;;;11.61;91.68
46129;BME280;31860;45.186;5.790;2022-11-22T11:27:12;97972.00;;;11.64;91.55
46129;BME280;31860;45.186;5.790;2022-11-22T11:30:12;97971.97;;;11.67;92.34
46129;BME280;31860;45.186;5.790;2022-11-22T11:33:13;97970.13;;;11.70;93.26
46129;BME280;31860;45.186;5.790;2022-11-22T11:35:40;97957.06;;;11.70;92.67
46129;BME280;31860;45.186;5.790;2022-11-22T11:38:25;97954.41;;;11.72;92.26
46129;BME280;31860;45.186;5.790;2022-11-22T11:40:51;97957.78;;;11.75;93.10
46129;BME280;31860;45.186;5.790;2022-11-22T11:43:21;97951.59;;;11.79;93.59
46129;BME280;31860;45.186;5.790;2022-11-22T11:45:47;97951.50;;;11.84;92.75
46129;BME280;31860;45.186;5.790;2022-11-22T11:48:28;97944.22;;;11.95;91.64
46129;BME280;31860;45.186;5.790;2022-11-22T11:51:06;97937.06;;;12.03;90.71
46129;BME280;31860;45.186;5.790;2022-11-22T11:53:32;97930.59;;;12.16;89.67
46129;BME280;31860;45.186;5.790;2022-11-22T11:56:20;97925.88;;;12.28;88.84
46129;BME280;31860;45.186;5.790;2022-11-22T11:58:55;97927.38;;;12.37;88.11
46129;BME280;31860;45.186;5.790;2022-11-22T12:01:23;97933.25;;;12.45;86.59
46129;BME280;31860;45.186;5.790;2022-11-22T12:04:03;97931.34;;;12.50;85.22
46129;BME280;31860;45.186;5.790;2022-11-22T12:06:32;97933.00;;;12.54;84.06
46129;BME280;31860;45.186;5.790;2022-11-22T12:08:59;97919.88;;;12.56;83.02
46129;BME280;31860;45.186;5.790;2022-11-22T12:11:45;97927.69;;;12.57;80.97
46129;BME280;31860;45.186;5.790;2022-11-22T12:14:14;97920.66;;;12.59;80.41
46129;BME280;31860;45.186;5.790;2022-11-22T12:16:45;97923.25;;;12.59;79.50
46129;BME280;31860;45.186;5.790;2022-11-22T12:19:31;97926.72;;;12.60;79.30
46129;BME280;31860;45.186;5.790;2022-11-22T12:24:46;97902.25;;;12.61;79.92
46129;BME280;31860;45.186;5.790;2022-11-22T12:27:14;97902.22;;;12.62;78.71
46129;BME280;31860;45.186;5.790;2022-11-22T12:29:41;97898.66;;;12.65;77.42
46129;BME280;31860;45.186;5.790;2022-11-22T12:34:53;97901.72;;;12.79;75.73
46129;BME280;31860;45.186;5.790;2022-11-22T12:37:40;97904.91;;;12.88;75.39
46129;BME280;31860;45.186;5.790;2022-11-22T12:40:24;97902.88;;;12.98;75.44
46129;BME280;31860;45.186;5.790;2022-11-22T12:42:56;97906.16;;;13.06;75.20
46129;BME280;31860;45.186;5.790;2022-11-22T12:45:33;97892.91;;;13.10;73.97
46129;BME280;31860;45.186;5.790;2022-11-22T12:48:04;97884.97;;;13.13;73.33
46129;BME280;31860;45.186;5.790;2022-11-22T12:50:41;97884.03;;;13.14;72.86
46129;BME280;31860;45.186;5.790;2022-11-22T12:53:12;97884.97;;;13.13;72.39
46129;BME280;31860;45.186;5.790;2022-11-22T12:56:20;97889.38;;;13.11;69.99
46129;BME280;31860;45.186;5.790;2022-11-22T13:06:44;97882.81;;;12.97;69.08
46129;BME280;31860;45.186;5.790;2022-11-22T13:09:28;97883.78;;;12.94;68.17
46129;BME280;31860;45.186;5.790;2022-11-22T13:11:59;97877.72;;;12.92;68.69
46129;BME280;31860;45.186;5.790;2022-11-22T13:14:37;97890.94;;;12.89;68.24
46129;BME280;31860;45.186;5.790;2022-11-22T13:17:11;97897.09;;;12.87;68.20
46129;BME280;31860;45.186;5.790;2022-11-22T13:19:45;97900.72;;;12.83;68.31
46129;BME280;31860;45.186;5.790;2022-11-22T13:27:56;97902.63;;;12.78;69.81
46129;BME280;31860;45.186;5.790;2022-11-22T13:30:26;97902.69;;;12.76;69.88
46129;BME280;31860;45.186;5.790;2022-11-22T13:32:54;97904.47;;;12.74;69.91
46129;BME280;31860;45.186;5.790;2022-11-22T13:35:31;97906.28;;;12.72;69.91
46129;BME280;31860;45.186;5.790;2022-11-22T13:38:04;97902.84;;;12.70;70.39
46129;BME280;31860;45.186;5.790;2022-11-22T13:40:35;97906.47;;;12.66;70.50
46129;BME280;31860;45.186;5.790;2022-11-22T13:45:57;97911.81;;;12.63;69.09
46129;BME280;31860;45.186;5.790;2022-11-22T13:51:13;97935.44;;;12.60;68.81
46129;BME280;31860;45.186;5.790;2022-11-22T13:53:41;97930.25;;;12.59;68.42
46129;BME280;31860;45.186;5.790;2022-11-22T13:58:49;97938.22;;;12.54;67.97
46129;BME280;31860;45.186;5.790;2022-11-22T14:06:48;97918.47;;;12.43;67.14
46129;BME280;31860;45.186;5.790;2022-11-22T14:09:14;97908.19;;;12.36;65.90